Time;durP1;ratioP1;P1;durP2;ratioP2;P2;SDS_P1;SDS_P2;PMS_P1;PMS_P2;Temp;Humidity;BMP_temperature;BMP_pressure;BME280_temperature;BME280_humidity;BME280_pressure;Samples;Min_cycle;Max_cycle;Signal;HPM_P1;HPM_P2
2021/09/03 00:01:28;;;;;;;24.48;9.27;;;;;;;15.49;76.38;100702.22;5025058;28;20045;-63
2021/09/03 00:03:54;;;;;;;27.75;9.80;;;;;;;15.51;75.91;100694.34;5025304;28;20037;-63
2021/09/03 00:06:19;;;;;;;23.95;9.75;;;;;;;15.56;75.27;100702.94;5025202;28;20033;-63
2021/09/03 00:08:45;;;;;;;18.75;9.80;;;;;;;15.55;74.69;100689.88;5025026;28;20045;-63
2021/09/03 00:11:11;;;;;;;20.92;8.73;;;;;;;15.60;73.91;100688.91;5024969;28;20038;-63
2021/09/03 00:13:36;;;;;;;19.23;8.65;;;;;;;15.70;72.12;100683.44;5024921;28;20034;-63
2021/09/03 00:16:02;;;;;;;17.13;7.57;;;;;;;15.88;71.25;100687.31;5024838;28;20064;-64
2021/09/03 00:18:28;;;;;;;26.98;8.93;;;;;;;16.03;69.74;100685.22;5024875;28;20278;-64
2021/09/03 00:20:53;;;;;;;21.73;7.72;;;;;;;16.09;68.75;100674.56;5024707;28;20458;-63
2021/09/03 00:23:18;;;;;;;19.15;8.57;;;;;;;16.17;67.17;100676.97;5024900;28;20029;-64
2021/09/03 00:25:45;;;;;;;19.58;8.77;;;;;;;16.24;67.04;100681.16;5024717;28;20030;-64
2021/09/03 00:28:11;;;;;;;15.75;7.88;;;;;;;16.26;66.62;100682.00;5024805;28;20045;-64
2021/09/03 00:30:36;;;;;;;17.15;8.88;;;;;;;16.28;66.19;100680.16;5024624;28;20082;-64
2021/09/03 00:33:01;;;;;;;19.13;8.85;;;;;;;16.28;66.00;100684.56;5024439;28;20033;-64
2021/09/03 00:35:27;;;;;;;18.55;8.65;;;;;;;16.26;65.65;100682.00;5024813;28;20025;-63
2021/09/03 00:37:52;;;;;;;17.30;8.65;;;;;;;16.20;65.68;100683.00;5024677;28;20088;-63
2021/09/03 00:40:17;;;;;;;22.48;8.40;;;;;;;16.14;65.47;100670.06;5024545;28;20018;-64
2021/09/03 00:42:43;;;;;;;15.38;7.07;;;;;;;16.11;65.11;100680.63;5024293;28;20470;-63
2021/09/03 00:45:09;;;;;;;17.92;8.30;;;;;;;16.12;64.10;100676.28;5024435;28;20030;-64
2021/09/03 00:47:34;;;;;;;15.95;8.05;;;;;;;16.08;63.93;100673.75;5024375;28;20022;-64
2021/09/03 00:49:59;;;;;;;14.52;7.63;;;;;;;16.05;63.88;100670.34;5024396;28;20373;-64
2021/09/03 00:52:25;;;;;;;17.13;7.60;;;;;;;15.98;63.88;100665.28;5024515;28;20017;-65
2021/09/03 00:54:54;;;;;;;17.02;7.63;;;;;;;15.91;63.31;100668.06;5024403;28;20108;-64
2021/09/03 00:57:21;;;;;;;17.98;7.50;;;;;;;15.88;62.96;100660.28;5024099;28;20049;-64
2021/09/03 00:59:46;;;;;;;16.63;7.88;;;;;;;15.84;62.87;100665.59;5024359;28;20026;-65
2021/09/03 01:02:11;;;;;;;16.27;6.28;;;;;;;15.78;62.88;100655.31;5024216;28;20062;-64
2021/09/03 01:04:37;;;;;;;17.00;7.38;;;;;;;15.76;62.45;100669.31;5024298;28;20037;-64
2021/09/03 01:07:02;;;;;;;13.75;7.28;;;;;;;15.72;62.24;100666.78;5024037;28;20492;-64
2021/09/03 01:09:27;;;;;;;16.73;8.18;;;;;;;15.71;62.35;100672.06;5023940;28;20017;-64
2021/09/03 01:11:53;;;;;;;19.10;8.63;;;;;;;15.68;62.04;100664.28;5023929;28;20033;-64
2021/09/03 01:14:19;;;;;;;16.77;7.75;;;;;;;15.64;62.53;100670.50;5022557;28;20084;-64
2021/09/03 01:16:44;;;;;;;13.13;7.35;;;;;;;15.57;62.50;100668.03;5023875;28;20056;-68
2021/09/03 01:19:09;;;;;;;19.25;8.82;;;;;;;15.51;62.88;100668.16;5024005;28;20054;-64
2021/09/03 01:21:36;;;;;;;17.08;8.18;;;;;;;15.41;63.04;100659.72;5023768;28;20513;-64
2021/09/03 01:24:02;;;;;;;18.38;8.35;;;;;;;15.32;63.05;100659.94;5023934;28;20049;-64
2021/09/03 01:26:28;;;;;;;15.07;8.00;;;;;;;15.23;63.34;100648.81;5024121;28;20033;-64
2021/09/03 01:28:53;;;;;;;17.15;8.13;;;;;;;15.15;63.43;100652.47;5023843;28;20022;-64
2021/09/03 01:31:19;;;;;;;13.93;8.25;;;;;;;15.08;63.19;100654.41;5023618;28;20052;-64
2021/09/03 01:33:44;;;;;;;14.13;7.97;;;;;;;15.03;63.37;100649.25;5023662;28;20057;-64
2021/09/03 01:36:09;;;;;;;19.25;7.68;;;;;;;14.97;62.98;100647.66;5023708;28;20114;-64
2021/09/03 01:38:37;;;;;;;12.00;7.55;;;;;;;15.01;62.52;100661.50;5023486;28;20429;-64
2021/09/03 01:41:02;;;;;;;13.90;7.75;;;;;;;14.96;62.46;100652.91;5022540;28;20026;-64
2021/09/03 01:43:28;;;;;;;13.77;7.07;;;;;;;14.95;62.35;100648.59;5023537;28;20385;-64
2021/09/03 01:45:53;;;;;;;14.93;7.53;;;;;;;14.95;62.49;100653.81;5022752;28;20022;-64
2021/09/03 01:48:19;;;;;;;13.38;6.45;;;;;;;14.94;62.01;100645.09;5023565;28;20058;-64
2021/09/03 01:50:45;;;;;;;10.88;6.88;;;;;;;14.90;62.04;100647.81;5023357;28;20022;-64
2021/09/03 01:53:10;;;;;;;13.85;7.47;;;;;;;14.87;61.74;100659.22;5023391;28;20022;-64
2021/09/03 01:55:36;;;;;;;15.85;7.22;;;;;;;14.84;61.65;100651.44;5023405;28;20026;-64
2021/09/03 01:58:01;;;;;;;14.30;6.82;;;;;;;14.80;61.71;100645.41;5021702;28;20042;-64
2021/09/03 02:00:26;;;;;;;15.23;7.40;;;;;;;14.82;61.60;100648.00;5023116;28;20045;-64
2021/09/03 02:02:52;;;;;;;10.90;6.70;;;;;;;14.78;61.57;100641.94;5023449;28;20115;-64
2021/09/03 02:05:17;;;;;;;16.35;7.47;;;;;;;14.75;61.53;100644.63;5023251;28;20033;-64
2021/09/03 02:07:43;;;;;;;13.52;5.57;;;;;;;14.72;61.74;100642.06;5023401;28;20026;-64
2021/09/03 02:10:08;;;;;;;11.85;6.90;;;;;;;14.64;61.94;100642.25;5023459;28;20014;-64
2021/09/03 02:12:34;;;;;;;12.90;7.10;;;;;;;14.59;62.03;100644.97;5023181;28;20054;-65
2021/09/03 02:14:59;;;;;;;14.27;7.43;;;;;;;14.57;61.96;100638.06;5023495;28;20025;-63
2021/09/03 02:17:25;;;;;;;13.50;7.28;;;;;;;14.53;62.13;100639.88;5021933;28;20053;-64
2021/09/03 02:19:50;;;;;;;13.25;7.20;;;;;;;14.49;62.35;100644.28;5023320;28;20030;-64
2021/09/03 02:22:15;;;;;;;13.45;7.32;;;;;;;14.49;62.16;100649.50;5023483;28;20041;-64
2021/09/03 02:24:41;;;;;;;13.15;8.25;;;;;;;14.46;62.41;100644.34;5023334;28;20053;-64
2021/09/03 02:27:06;;;;;;;13.73;7.22;;;;;;;14.45;62.18;100647.88;5023135;28;20236;-63
2021/09/03 02:29:32;;;;;;;13.93;7.22;;;;;;;14.42;62.38;100644.47;5023278;28;20504;-64
2021/09/03 02:31:57;;;;;;;13.52;6.93;;;;;;;14.42;62.21;100658.38;5023016;28;20440;-64
2021/09/03 02:34:23;;;;;;;13.63;6.97;;;;;;;14.40;62.45;100648.84;5023128;28;20029;-65
2021/09/03 02:36:49;;;;;;;12.20;6.57;;;;;;;14.38;62.24;100644.53;5023267;28;20033;-64
2021/09/03 02:39:14;;;;;;;13.50;7.55;;;;;;;14.39;61.91;100637.56;5023056;28;20080;-64
2021/09/03 02:41:39;;;;;;;11.60;6.85;;;;;;;14.41;62.09;100640.97;5023322;28;20018;-64
2021/09/03 02:44:05;;;;;;;14.60;6.93;;;;;;;14.42;62.00;100649.69;5022875;28;20057;-64
2021/09/03 02:46:30;;;;;;;11.75;6.32;;;;;;;14.38;61.94;100660.19;5022957;28;20029;-64
2021/09/03 02:48:56;;;;;;;11.52;6.65;;;;;;;14.34;61.67;100650.72;5021711;28;20056;-64
2021/09/03 02:51:21;;;;;;;11.82;6.65;;;;;;;14.40;61.76;100659.28;5022660;28;20045;-64
2021/09/03 02:53:46;;;;;;;9.95;6.13;;;;;;;14.37;61.59;100658.47;5022928;28;20030;-64
2021/09/03 02:56:12;;;;;;;13.25;5.97;;;;;;;14.36;61.67;100651.53;5023104;28;20385;-64
2021/09/03 02:58:37;;;;;;;15.95;7.30;;;;;;;14.36;61.69;100656.75;5026297;28;20108;-64
2021/09/03 03:01:03;;;;;;;13.55;6.70;;;;;;;14.37;61.66;100658.47;5026511;28;20076;-64
2021/09/03 03:03:28;;;;;;;13.98;6.82;;;;;;;14.32;61.74;100655.09;5026636;28;20045;-64
2021/09/03 03:05:53;;;;;;;11.10;6.65;;;;;;;14.33;61.71;100651.59;5026840;28;20030;-64
2021/09/03 03:08:19;;;;;;;11.85;6.93;;;;;;;14.29;61.83;100657.78;5026463;28;20529;-64
2021/09/03 03:10:44;;;;;;;12.57;6.15;;;;;;;14.20;61.68;100647.50;5026440;28;20021;-64
2021/09/03 03:13:20;;;;;;;14.40;7.85;;;;;;;14.24;61.68;100663.09;5025953;28;20038;-64
2021/09/03 03:15:49;;;;;;;14.73;7.07;;;;;;;14.19;61.75;100669.28;5026162;28;20033;-63
2021/09/03 03:18:15;;;;;;;15.40;6.95;;;;;;;14.18;61.64;100673.66;5026393;28;20017;-64
2021/09/03 03:20:41;;;;;;;16.55;6.75;;;;;;;14.13;61.67;100659.81;5008298;28;20083;-63
2021/09/03 03:23:07;;;;;;;13.85;6.22;;;;;;;14.14;61.81;100661.53;5026442;28;20030;-63
2021/09/03 03:25:33;;;;;;;16.23;7.20;;;;;;;14.15;61.66;100670.22;5024744;28;20026;-63
2021/09/03 03:27:58;;;;;;;19.95;7.57;;;;;;;14.10;61.71;100665.97;5026182;28;20030;-63
2021/09/03 03:30:23;;;;;;;17.30;6.85;;;;;;;14.10;61.63;100659.88;5025982;28;20056;-64
2021/09/03 03:32:49;;;;;;;17.65;6.75;;;;;;;14.07;61.75;100660.81;5025932;28;20033;-64
2021/09/03 03:35:14;;;;;;;19.77;7.70;;;;;;;14.07;61.77;100665.16;5026111;28;20109;-65
2021/09/03 03:37:40;;;;;;;17.45;7.22;;;;;;;14.04;61.99;100662.59;5025833;28;20556;-64
2021/09/03 03:40:06;;;;;;;14.05;7.05;;;;;;;14.02;62.05;100660.03;5025706;28;20064;-64
2021/09/03 03:42:31;;;;;;;19.33;7.40;;;;;;;13.96;62.06;100658.38;5025718;28;20033;-63
2021/09/03 03:44:56;;;;;;;17.55;7.18;;;;;;;13.91;62.02;100649.78;5025540;28;20368;-63
2021/09/03 03:47:22;;;;;;;11.85;6.97;;;;;;;13.88;62.18;100661.13;5024293;28;20022;-63
2021/09/03 03:49:47;;;;;;;19.80;7.57;;;;;;;13.82;62.40;100666.47;5025646;28;20462;-65
2021/09/03 03:52:13;;;;;;;16.05;8.45;;;;;;;13.77;62.57;100665.66;5025565;28;20021;-63
2021/09/03 03:54:38;;;;;;;13.40;6.82;;;;;;;13.69;62.68;100664.97;5025331;28;20425;-63
2021/09/03 03:57:03;;;;;;;14.02;6.82;;;;;;;13.65;62.55;100666.75;5025422;28;20045;-64
2021/09/03 03:59:30;;;;;;;10.32;6.60;;;;;;;13.56;62.58;100665.16;5025414;28;20029;-64
2021/09/03 04:01:55;;;;;;;13.38;6.97;;;;;;;13.42;62.80;100648.88;5025235;28;20480;-64
2021/09/03 04:04:21;;;;;;;16.20;7.80;;;;;;;13.37;63.01;100657.59;5023874;28;20029;-64
2021/09/03 04:06:46;;;;;;;13.52;6.88;;;;;;;13.35;63.19;100667.22;5025227;28;20033;-64
2021/09/03 04:09:11;;;;;;;14.80;7.40;;;;;;;13.27;63.22;100667.31;5024647;28;20022;-64
2021/09/03 04:11:37;;;;;;;12.80;8.23;;;;;;;13.23;63.48;100665.66;5025331;28;20022;-64
2021/09/03 04:14:02;;;;;;;14.00;7.20;;;;;;;13.18;63.56;100664.00;5024997;28;20018;-64
2021/09/03 04:16:28;;;;;;;12.32;6.85;;;;;;;13.12;63.58;100665.81;5024960;28;20108;-64
2021/09/03 04:18:53;;;;;;;11.15;7.38;;;;;;;13.09;63.85;100667.59;5025186;28;20051;-64
2021/09/03 04:21:19;;;;;;;12.35;7.00;;;;;;;13.05;63.85;100665.94;5024979;28;20462;-63
2021/09/03 04:23:44;;;;;;;15.00;7.15;;;;;;;13.06;64.37;100672.88;5024636;28;20057;-63
2021/09/03 04:26:09;;;;;;;12.05;7.57;;;;;;;13.04;64.37;100666.81;5024715;28;20022;-63
2021/09/03 04:28:35;;;;;;;10.85;6.43;;;;;;;13.14;64.15;100674.50;5024714;28;20029;-63
2021/09/03 04:31:00;;;;;;;12.35;6.53;;;;;;;13.25;64.29;100674.31;5024615;28;20026;-64
2021/09/03 04:33:25;;;;;;;10.77;6.60;;;;;;;13.44;64.16;100681.84;5024576;28;20486;-63
2021/09/03 04:35:51;;;;;;;12.13;6.85;;;;;;;13.63;63.77;100681.56;5024934;28;20040;-63
2021/09/03 04:38:16;;;;;;;12.93;7.20;;;;;;;13.86;63.41;100675.97;5024640;28;20040;-64
2021/09/03 04:40:41;;;;;;;11.80;7.38;;;;;;;14.09;62.76;100682.50;5024644;28;20021;-63
2021/09/03 04:43:07;;;;;;;12.80;6.60;;;;;;;14.40;62.67;100694.13;5024303;28;20026;-65
2021/09/03 04:45:32;;;;;;;11.43;4.97;;;;;;;14.67;61.81;100670.06;5024483;28;20022;-64
2021/09/03 04:47:57;;;;;;;11.73;6.22;;;;;;;15.06;61.44;100679.72;5024566;28;20499;-65
2021/09/03 04:50:23;;;;;;;10.30;6.57;;;;;;;15.35;60.60;100684.25;5024206;28;20026;-72
2021/09/03 04:52:48;;;;;;;14.18;6.40;;;;;;;15.72;59.87;100681.59;5023079;28;20018;-73
2021/09/03 04:55:14;;;;;;;11.25;6.55;;;;;;;16.07;59.49;100695.56;5024431;28;20030;-73
2021/09/03 04:57:42;;;;;;;12.05;6.40;;;;;;;16.31;58.80;100701.03;5022806;28;20157;-72
2021/09/03 05:00:09;;;;;;;10.90;6.65;;;;;;;16.55;58.05;100693.38;5024497;28;20030;-74
2021/09/03 05:02:35;;;;;;;12.50;6.53;;;;;;;16.89;57.09;100686.28;5024391;28;20018;-73
2021/09/03 05:05:04;;;;;;;13.32;6.35;;;;;;;17.07;54.80;100690.13;5024522;28;20193;-71
2021/09/03 05:07:29;;;;;;;10.73;6.00;;;;;;;17.13;54.50;100688.22;5024290;28;20044;-73
2021/09/03 05:09:55;;;;;;;10.15;6.47;;;;;;;17.23;54.25;100687.03;5024081;28;20022;-73
2021/09/03 05:12:20;;;;;;;11.52;6.60;;;;;;;17.25;54.12;100687.84;5024257;28;20049;-72
2021/09/03 05:14:46;;;;;;;14.07;7.05;;;;;;;17.12;53.99;100684.75;5024070;28;20024;-74
2021/09/03 05:17:11;;;;;;;12.35;7.00;;;;;;;16.98;53.95;100691.25;5022568;28;20104;-74
2021/09/03 05:19:36;;;;;;;10.95;7.25;;;;;;;16.72;53.64;100694.66;5024045;28;20026;-70
2021/09/03 05:22:02;;;;;;;13.65;6.13;;;;;;;16.53;54.14;100699.59;5024264;28;20084;-74
2021/09/03 05:24:27;;;;;;;11.45;6.78;;;;;;;16.29;54.39;100708.09;5023879;28;20377;-64
2021/09/03 05:26:53;;;;;;;10.77;6.47;;;;;;;16.07;54.56;100708.66;5023946;28;20029;-65
2021/09/03 05:29:18;;;;;;;11.75;6.55;;;;;;;16.06;55.01;100711.31;5023580;28;20030;-64
2021/09/03 05:31:44;;;;;;;12.10;6.88;;;;;;;16.27;54.86;100709.03;5023632;28;20021;-64
2021/09/03 05:34:09;;;;;;;15.13;6.43;;;;;;;16.61;54.95;100713.34;5023868;28;20029;-63
2021/09/03 05:36:37;;;;;;;9.98;6.32;;;;;;;16.97;54.71;100712.28;5023815;28;20071;-64
2021/09/03 05:39:03;;;;;;;9.77;5.80;;;;;;;17.39;53.96;100710.16;5023655;28;20032;-65
2021/09/03 05:41:28;;;;;;;9.85;5.85;;;;;;;17.90;53.47;100715.47;5023822;28;20061;-65
2021/09/03 05:43:54;;;;;;;13.63;6.65;;;;;;;18.46;52.10;100705.69;5023627;28;20033;-65
2021/09/03 05:46:19;;;;;;;9.93;5.57;;;;;;;19.07;50.92;100698.97;5023342;28;20100;-65
2021/09/03 05:48:44;;;;;;;12.43;7.07;;;;;;;19.48;49.83;100702.66;5022936;28;20034;-65
2021/09/03 05:51:10;;;;;;;10.68;6.30;;;;;;;19.66;48.28;100705.47;5023456;28;20021;-65
2021/09/03 05:53:35;;;;;;;12.57;6.15;;;;;;;19.75;47.39;100697.16;5023509;28;20028;-65
2021/09/03 05:56:00;;;;;;;9.57;5.60;;;;;;;19.86;46.19;100699.34;5023695;28;20033;-65
2021/09/03 05:58:26;;;;;;;11.48;7.00;;;;;;;19.84;45.60;100698.53;5022055;28;20038;-65
2021/09/03 06:00:51;;;;;;;16.48;7.07;;;;;;;19.71;45.49;100697.34;5023360;28;20431;-65
2021/09/03 06:03:16;;;;;;;12.50;7.13;;;;;;;19.66;45.55;100694.91;5023749;28;20029;-65
2021/09/03 06:05:42;;;;;;;12.90;7.20;;;;;;;19.64;45.75;100702.03;5023656;28;20060;-65
2021/09/03 06:08:07;;;;;;;10.57;6.60;;;;;;;19.71;45.52;100698.22;5023361;28;20022;-65
2021/09/03 06:10:33;;;;;;;9.98;6.13;;;;;;;19.71;44.64;100689.47;5023322;28;20018;-65
2021/09/03 06:12:58;;;;;;;8.13;5.82;;;;;;;19.81;44.15;100694.25;5023195;28;20033;-65
2021/09/03 06:15:23;;;;;;;11.32;5.90;;;;;;;19.98;43.67;100705.00;5021758;28;20018;-64
2021/09/03 06:17:49;;;;;;;10.70;5.75;;;;;;;19.93;42.91;100692.91;5022829;28;20193;-64
2021/09/03 06:20:14;;;;;;;9.70;5.95;;;;;;;20.10;43.83;100701.84;5022930;28;20034;-64
2021/09/03 06:22:41;;;;;;;12.02;5.80;;;;;;;20.47;43.46;100707.28;5023664;28;20081;-65
2021/09/03 06:25:07;;;;;;;10.18;5.10;;;;;;;20.79;41.82;100712.84;5023487;28;20025;-64
2021/09/03 06:27:33;;;;;;;11.32;6.50;;;;;;;20.79;41.10;100710.22;5021934;28;20029;-64
2021/09/03 06:29:58;;;;;;;8.38;4.90;;;;;;;20.86;40.92;100712.56;5021745;28;20022;-64
2021/09/03 06:32:26;;;;;;;7.53;5.10;;;;;;;20.89;41.10;100709.78;5024632;28;20032;-64
2021/09/03 06:34:55;;;;;;;7.85;5.20;;;;;;;21.07;39.94;100708.06;5026761;28;20025;-64
2021/09/03 06:37:21;;;;;;;11.32;4.82;;;;;;;20.99;39.36;100711.06;5027101;28;20026;-64
2021/09/03 06:39:48;;;;;;;7.65;4.80;;;;;;;20.81;39.97;100713.59;5026845;28;20030;-64
2021/09/03 06:42:14;;;;;;;11.52;5.38;;;;;;;20.52;40.07;100707.91;5026838;28;20026;-64
2021/09/03 06:44:39;;;;;;;8.25;4.88;;;;;;;20.47;40.62;100717.81;5025305;28;20030;-64
2021/09/03 06:47:05;;;;;;;7.95;5.07;;;;;;;20.63;40.51;100706.56;5026340;28;20056;-64
2021/09/03 06:49:31;;;;;;;7.57;4.78;;;;;;;20.92;40.05;100712.28;5026873;28;20022;-64
2021/09/03 06:51:57;;;;;;;8.60;4.47;;;;;;;21.10;39.64;100709.72;5026719;28;20053;-64
2021/09/03 06:54:22;;;;;;;8.18;5.15;;;;;;;21.33;38.97;100703.31;5026353;28;20028;-64
2021/09/03 06:56:48;;;;;;;6.43;4.13;;;;;;;21.48;39.17;100700.84;5026435;28;20125;-65
2021/09/03 06:59:14;;;;;;;7.85;5.00;;;;;;;21.74;37.95;100710.06;5026126;28;20049;-64
2021/09/03 07:01:39;;;;;;;8.00;4.28;;;;;;;21.81;38.42;100708.00;5025803;28;20030;-64
2021/09/03 07:04:05;;;;;;;10.85;4.75;;;;;;;22.29;37.86;100705.53;5026443;28;20409;-64
2021/09/03 07:06:31;;;;;;;7.47;4.65;;;;;;;22.57;36.93;100705.00;5026188;28;20022;-65
2021/09/03 07:08:57;;;;;;;7.00;4.72;;;;;;;22.87;36.60;100705.13;5026086;28;20022;-65
2021/09/03 07:11:22;;;;;;;8.18;4.28;;;;;;;23.15;36.31;100705.34;5026220;28;20030;-65
2021/09/03 07:13:48;;;;;;;7.40;4.25;;;;;;;23.40;35.23;100701.31;5026059;28;20081;-65
2021/09/03 07:16:13;;;;;;;11.88;4.68;;;;;;;23.54;34.49;100702.28;5026050;28;20091;-65
2021/09/03 07:18:39;;;;;;;6.90;4.18;;;;;;;23.89;34.65;100708.16;5026218;28;20022;-65
2021/09/03 07:21:04;;;;;;;7.78;3.53;;;;;;;24.30;33.87;100704.91;5025817;28;20037;-63
2021/09/03 07:23:30;;;;;;;7.07;4.03;;;;;;;24.83;33.49;100701.59;5025874;28;20129;-63
2021/09/03 07:25:55;;;;;;;7.00;4.20;;;;;;;25.54;32.30;100708.56;5025808;28;20025;-63
2021/09/03 07:28:20;;;;;;;6.03;3.85;;;;;;;25.76;30.03;100710.66;5025816;28;20010;-70
2021/09/03 07:30:46;;;;;;;11.40;4.18;;;;;;;25.54;30.39;100714.75;5025587;28;20018;-68
2021/09/03 07:33:11;;;;;;;7.63;4.20;;;;;;;25.71;30.37;100713.63;5024758;28;20389;-70
2021/09/03 07:35:36;;;;;;;6.85;3.95;;;;;;;25.91;31.02;100714.06;5030891;23;20030;-66
2021/09/03 07:38:03;;;;;;;7.28;4.32;;;;;;;26.09;30.42;100713.72;5025659;28;20230;-65
2021/09/03 07:40:28;;;;;;;6.50;4.40;;;;;;;26.23;29.58;100710.97;5025590;28;20033;-65
2021/09/03 07:42:55;;;;;;;8.52;4.90;;;;;;;26.42;29.85;100717.66;5024847;28;20030;-65
2021/09/03 07:45:21;;;;;;;7.00;4.18;;;;;;;26.46;29.21;100723.63;5025253;28;20117;-65
2021/09/03 07:47:46;;;;;;;9.38;4.90;;;;;;;26.44;28.88;100725.56;5022933;28;20028;-66
2021/09/03 07:50:16;;;;;;;8.40;4.95;;;;;;;26.57;28.58;100728.19;5025541;28;20021;-67
2021/09/03 07:52:41;;;;;;;7.75;4.10;;;;;;;26.42;28.00;100725.66;5023462;28;20014;-67
2021/09/03 07:55:07;;;;;;;9.77;4.72;;;;;;;26.22;28.33;100733.22;5021697;28;20123;-67
2021/09/03 07:57:32;;;;;;;8.63;4.88;;;;;;;25.84;29.09;100729.59;5021939;28;20022;-67
2021/09/03 07:59:57;;;;;;;8.55;4.47;;;;;;;25.81;29.60;100729.81;5022394;28;20311;-67
2021/09/03 08:02:23;;;;;;;8.27;4.55;;;;;;;26.11;28.84;100733.09;5021975;28;20053;-66
2021/09/03 08:04:48;;;;;;;8.15;3.90;;;;;;;26.05;28.71;100733.53;5022082;28;20029;-66
2021/09/03 08:07:13;;;;;;;6.03;3.55;;;;;;;25.60;28.26;100737.38;5022428;28;20052;-67
2021/09/03 08:09:39;;;;;;;5.30;3.65;;;;;;;25.37;28.85;100737.09;5025097;28;20032;-67
2021/09/03 08:12:04;;;;;;;9.55;4.03;;;;;;;25.32;29.29;100737.41;5025078;28;20025;-66
2021/09/03 08:14:30;;;;;;;7.30;3.63;;;;;;;25.70;29.35;100741.16;5024769;28;20404;-67
2021/09/03 08:16:55;;;;;;;7.75;3.92;;;;;;;25.86;28.69;100740.13;5024493;28;20026;-67
2021/09/03 08:19:20;;;;;;;5.65;3.97;;;;;;;25.72;29.36;100733.09;5024899;28;20094;-68
2021/09/03 08:21:46;;;;;;;6.90;3.70;;;;;;;26.07;29.10;100740.44;5024933;28;20025;-67
2021/09/03 08:24:11;;;;;;;6.47;3.90;;;;;;;26.64;28.32;100734.78;5024975;28;20100;-67
2021/09/03 08:26:38;;;;;;;5.32;3.60;;;;;;;26.77;26.81;100742.75;5024803;28;20033;-66
2021/09/03 08:29:05;;;;;;;7.00;3.97;;;;;;;26.58;27.69;100737.88;5024952;28;20037;-67
2021/09/03 08:31:30;;;;;;;6.85;3.60;;;;;;;26.61;27.22;100749.16;5024615;28;20038;-67
2021/09/03 08:33:56;;;;;;;5.10;3.28;;;;;;;26.09;28.03;100749.19;5024349;28;20041;-67
2021/09/03 08:36:21;;;;;;;5.63;3.38;;;;;;;25.60;28.46;100737.38;5024519;28;20053;-68
2021/09/03 08:38:47;;;;;;;6.35;3.65;;;;;;;25.42;28.55;100735.00;5024449;28;20030;-67
2021/09/03 08:41:17;;;;;;;5.50;3.40;;;;;;;25.48;28.77;100739.91;5024762;28;20025;-67
2021/09/03 08:43:42;;;;;;;5.60;3.22;;;;;;;25.74;27.79;100739.13;5024529;28;20045;-67
2021/09/03 08:46:07;;;;;;;5.63;3.17;;;;;;;25.89;28.21;100741.72;5024285;28;20026;-68
2021/09/03 08:48:33;;;;;;;5.57;3.60;;;;;;;26.38;27.72;100733.97;5024625;28;20022;-68
2021/09/03 08:50:59;;;;;;;7.80;3.28;;;;;;;26.84;27.91;100744.00;5022932;28;20217;-68
2021/09/03 08:53:24;;;;;;;7.00;3.33;;;;;;;27.03;27.02;100752.50;5024413;28;20369;-68
2021/09/03 08:55:52;;;;;;;4.20;3.20;;;;;;;26.88;26.58;100741.97;5023787;28;20117;-68
2021/09/03 08:58:18;;;;;;;5.45;3.03;;;;;;;26.45;26.92;100741.44;5024237;28;20493;-67
2021/09/03 09:00:44;;;;;;;10.63;3.90;;;;;;;26.47;27.40;100734.16;5024193;28;20342;-67
2021/09/03 09:03:15;;;;;;;6.20;3.08;;;;;;;27.07;26.97;100735.31;5023966;28;20026;-67
2021/09/03 09:05:43;;;;;;;4.57;3.00;;;;;;;27.02;26.59;100742.78;5024122;28;20033;-67
2021/09/03 09:08:09;;;;;;;4.07;3.03;;;;;;;26.84;26.62;100733.34;5024216;28;20025;-67
2021/09/03 09:10:36;;;;;;;5.45;3.38;;;;;;;27.18;26.39;100734.53;5024053;28;20069;-68
2021/09/03 09:13:15;;;;;;;7.18;4.13;;;;;;;26.84;26.43;100748.47;5023998;28;20052;-67
2021/09/03 09:15:41;;;;;;;8.88;3.65;;;;;;;26.45;26.54;100744.09;5023984;28;20033;-68
2021/09/03 09:18:06;;;;;;;7.70;3.25;;;;;;;26.46;26.21;100742.25;5023628;28;20029;-68
2021/09/03 09:20:33;;;;;;;5.45;3.63;;;;;;;26.58;26.11;100746.72;5023856;28;20117;-67
2021/09/03 09:23:04;;;;;;;11.30;3.85;;;;;;;26.74;25.60;100753.63;5023857;28;20301;-67
2021/09/03 09:25:36;;;;;;;6.53;3.63;;;;;;;26.94;26.04;100749.50;5023482;28;20049;-66
2021/09/03 09:28:19;;;;;;;6.65;4.00;;;;;;;27.32;25.43;100750.34;5022589;28;20034;-68
2021/09/03 09:30:46;;;;;;;5.53;4.00;;;;;;;27.26;24.45;100749.94;5024098;28;20022;-67
2021/09/03 09:33:13;;;;;;;4.60;3.80;;;;;;;27.09;24.60;100763.53;5023459;28;20113;-66
2021/09/03 09:35:42;;;;;;;7.38;3.90;;;;;;;27.01;25.27;100755.28;5023244;28;20086;-65
2021/09/03 09:38:08;;;;;;;5.38;3.63;;;;;;;26.87;25.24;100769.53;5023742;28;20030;-66
2021/09/03 09:40:52;;;;;;;6.35;3.60;;;;;;;26.81;26.39;100765.53;5023355;28;20030;-67
2021/09/03 09:43:26;;;;;;;5.05;3.67;;;;;;;27.53;25.44;100765.69;5023635;28;20085;-66
2021/09/03 09:46:25;;;;;;;5.80;3.65;;;;;;;27.51;24.94;100756.13;5022189;28;20258;-67
2021/09/03 09:48:54;;;;;;;8.05;4.57;;;;;;;27.38;25.00;100767.66;5012290;28;20038;-66
2021/09/03 09:51:30;;;;;;;7.88;4.00;;;;;;;27.55;25.26;100768.25;5022326;28;20521;-67
2021/09/03 09:54:02;;;;;;;5.72;3.88;;;;;;;27.93;24.85;100767.16;5023162;28;20049;-66
2021/09/03 09:56:31;;;;;;;7.45;4.65;;;;;;;27.58;24.83;100773.34;5022270;28;20060;-67
2021/09/03 09:58:58;;;;;;;5.32;3.35;;;;;;;27.49;24.98;100766.03;5022941;28;20049;-66
2021/09/03 10:01:24;;;;;;;7.05;3.58;;;;;;;27.77;25.55;100775.50;5023016;28;20085;-67
2021/09/03 10:03:52;;;;;;;10.23;3.90;;;;;;;28.06;24.93;100767.09;5023071;28;20021;-67
2021/09/03 10:06:23;;;;;;;7.00;3.78;;;;;;;28.38;24.37;100770.91;5023369;28;20022;-66
2021/09/03 10:08:49;;;;;;;7.63;4.25;;;;;;;28.25;24.46;100767.44;5027024;28;20026;-67
2021/09/03 10:11:16;;;;;;;5.97;3.53;;;;;;;27.95;24.54;100761.72;5027324;28;20036;-66
2021/09/03 10:13:42;;;;;;;8.13;4.25;;;;;;;27.88;24.80;100764.00;5025833;28;20050;-66
2021/09/03 10:16:07;;;;;;;10.13;4.57;;;;;;;27.68;24.80;100757.53;5026775;28;20501;-66
2021/09/03 10:18:33;;;;;;;5.50;3.72;;;;;;;27.41;24.95;100761.28;5027136;28;20029;-66
2021/09/03 10:21:01;;;;;;;5.75;3.78;;;;;;;27.24;25.35;100778.53;5027258;28;20081;-66
2021/09/03 10:23:53;;;;;;;7.68;3.88;;;;;;;26.97;25.98;100759.94;5027013;28;20041;-65
2021/09/03 10:26:29;;;;;;;5.78;3.70;;;;;;;27.10;25.71;100759.06;5026819;28;20014;-66
2021/09/03 10:29:16;;;;;;;8.13;4.10;;;;;;;27.18;25.91;100754.03;5026984;28;20089;-66
2021/09/03 10:32:03;;;;;;;6.45;4.50;;;;;;;27.25;25.61;100750.91;5026774;28;20026;-67
2021/09/03 10:34:58;;;;;;;6.55;3.70;;;;;;;27.44;25.78;100751.25;5026738;28;20046;-66
2021/09/03 10:37:27;;;;;;;9.30;3.80;;;;;;;27.89;24.80;100748.84;5025345;28;20056;-66
2021/09/03 10:40:05;;;;;;;7.40;3.63;;;;;;;27.42;24.57;100745.16;5026724;28;20026;-66
2021/09/03 10:45:01;;;;;;;6.25;3.85;;;;;;;26.60;25.44;100747.47;5026146;28;20036;-66
2021/09/03 10:47:35;;;;;;;6.15;3.83;;;;;;;25.84;25.38;100750.00;5026384;28;20108;-65
2021/09/03 10:50:18;;;;;;;7.75;4.10;;;;;;;24.89;26.60;100756.97;5026593;28;20470;-65
2021/09/03 10:53:02;;;;;;;7.18;3.22;;;;;;;24.00;27.58;100763.19;5026395;28;20076;-65
2021/09/03 10:56:09;;;;;;;5.55;3.45;;;;;;;23.70;29.03;100748.16;5026264;28;20110;-65
2021/09/03 10:58:37;;;;;;;7.30;3.85;;;;;;;24.81;28.48;100762.75;4964985;29;20102;-66
2021/09/03 11:01:11;;;;;;;6.05;3.25;;;;;;;25.83;27.14;100756.28;4964822;29;20027;-67
2021/09/03 11:03:37;;;;;;;5.20;3.40;;;;;;;26.41;26.11;100763.88;4965193;29;20071;-67
2021/09/03 11:06:02;;;;;;;5.82;3.40;;;;;;;26.06;26.69;100769.81;4964946;29;20053;-67
2021/09/03 11:08:46;;;;;;;4.97;3.17;;;;;;;25.63;27.23;100753.16;4964867;29;20031;-67
2021/09/03 11:11:27;;;;;;;4.88;3.35;;;;;;;25.98;26.54;100749.06;4965042;29;20027;-66
2021/09/03 11:13:56;;;;;;;5.55;3.60;;;;;;;25.30;27.17;100757.94;4965101;29;20043;-66
2021/09/03 11:16:39;;;;;;;8.00;3.72;;;;;;;24.76;28.08;100746.28;4948628;29;20038;-66
2021/09/03 11:19:10;;;;;;;7.10;3.25;;;;;;;24.94;27.83;100754.91;4964780;28;20031;-67
2021/09/03 11:21:40;;;;;;;11.82;4.30;;;;;;;25.69;27.67;100758.06;4964416;29;20491;-67